Time;durP1;ratioP1;P1;durP2;ratioP2;P2;SDS_P1;SDS_P2;PMS_P1;PMS_P2;Temp;Humidity;BMP_temperature;BMP_pressure;BME280_temperature;BME280_humidity;BME280_pressure;Samples;Min_cycle;Max_cycle;Signal;HPM_P1;HPM_P2
2023/06/18 00:01:05;;;;;;;15.30;11.13;;;14.20;99.90;;;;;;6243718;23;20055;-83
2023/06/18 00:03:31;;;;;;;16.73;10.93;;;14.20;99.90;;;;;;6245129;23;20035;-83
2023/06/18 00:05:59;;;;;;;16.52;11.55;;;14.20;99.90;;;;;;6192950;23;20024;-84
2023/06/18 00:08:24;;;;;;;15.45;9.95;;;14.20;99.90;;;;;;6245509;23;20012;-83
2023/06/18 00:10:50;;;;;;;17.55;10.50;;;14.20;99.90;;;;;;6245462;23;20085;-83
2023/06/18 00:13:16;;;;;;;16.42;10.75;;;14.20;99.90;;;;;;6245461;23;20562;-84
2023/06/18 00:15:42;;;;;;;15.40;10.25;;;14.20;99.90;;;;;;6245709;23;20028;-83
2023/06/18 00:18:07;;;;;;;14.18;9.63;;;14.20;99.90;;;;;;6245462;23;20051;-84
2023/06/18 00:20:33;;;;;;;16.13;10.52;;;14.20;99.90;;;;;;6245501;23;20042;-84
2023/06/18 00:23:00;;;;;;;15.00;10.45;;;14.20;99.90;;;;;;6243652;23;20378;-83
2023/06/18 00:25:26;;;;;;;14.25;9.98;;;14.10;99.90;;;;;;6245630;23;20031;-83
2023/06/18 00:27:51;;;;;;;14.88;10.30;;;14.10;99.90;;;;;;6245480;23;20016;-84
2023/06/18 00:30:17;;;;;;;14.70;9.98;;;14.10;99.90;;;;;;6218617;23;20449;-83
2023/06/18 00:32:44;;;;;;;14.15;10.48;;;14.10;99.90;;;;;;6218553;23;20020;-83
2023/06/18 00:35:14;;;;;;;13.73;9.35;;;14.10;99.90;;;;;;6245059;23;20103;-83
2023/06/18 00:37:43;;;;;;;14.10;9.52;;;14.00;99.90;;;;;;6245596;23;20020;-83
2023/06/18 00:40:13;;;;;;;16.60;10.73;;;14.00;99.90;;;;;;6217988;23;20058;-83
2023/06/18 00:42:40;;;;;;;16.23;10.05;;;14.00;99.90;;;;;;6245457;23;20391;-84
2023/06/18 00:45:08;;;;;;;16.48;10.77;;;14.00;99.90;;;;;;6245394;23;20047;-83
2023/06/18 00:47:35;;;;;;;18.45;10.52;;;14.00;99.90;;;;;;6218511;23;20090;-85
2023/06/18 00:50:03;;;;;;;21.45;14.07;;;14.00;99.90;;;;;;6218531;23;20028;-83
2023/06/18 00:52:32;;;;;;;17.08;11.32;;;13.90;99.90;;;;;;6246816;23;20020;-85
2023/06/18 00:54:58;;;;;;;16.65;11.43;;;14.00;99.90;;;;;;6247361;23;20012;-84
2023/06/18 00:57:24;;;;;;;18.08;11.38;;;14.00;99.90;;;;;;6220041;23;20043;-83
2023/06/18 00:59:51;;;;;;;18.40;12.60;;;14.00;99.90;;;;;;6247136;23;20016;-83
2023/06/18 01:02:23;;;;;;;17.80;12.13;;;13.90;99.90;;;;;;6247150;23;20016;-83
2023/06/18 01:04:53;;;;;;;18.13;12.05;;;14.00;99.90;;;;;;6220046;23;20096;-84
2023/06/18 01:07:20;;;;;;;18.00;11.63;;;14.00;99.90;;;;;;6246718;23;20031;-83
2023/06/18 01:09:52;;;;;;;18.25;11.85;;;14.00;99.90;;;;;;6246943;23;20095;-83
2023/06/18 01:12:19;;;;;;;17.95;12.05;;;14.10;99.90;;;;;;6247204;23;20016;-84
2023/06/18 01:14:50;;;;;;;19.63;12.55;;;14.10;99.90;;;;;;6246869;23;20024;-84
2023/06/18 01:17:18;;;;;;;20.65;12.13;;;13.90;99.90;;;;;;6246983;23;20031;-84
2023/06/18 01:19:56;;;;;;;17.48;11.90;;;14.10;99.90;;;;;;6219796;23;20100;-84
2023/06/18 01:22:37;;;;;;;17.45;11.88;;;14.10;99.90;;;;;;6247110;23;20043;-84
2023/06/18 01:25:05;;;;;;;14.95;9.95;;;14.00;99.90;;;;;;6247089;23;20028;-84
2023/06/18 01:27:33;;;;;;;14.50;10.45;;;14.10;99.90;;;;;;6246726;23;20020;-83
2023/06/18 01:30:00;;;;;;;16.40;11.95;;;14.00;99.90;;;;;;6219364;23;20026;-84
2023/06/18 01:32:27;;;;;;;16.55;11.38;;;14.00;99.90;;;;;;6219158;23;20020;-85
2023/06/18 01:34:56;;;;;;;16.40;11.73;;;14.10;99.90;;;;;;6246802;23;20103;-84
2023/06/18 01:37:40;;;;;;;16.92;11.60;;;14.00;99.90;;;;;;6246067;23;20463;-83
2023/06/18 01:40:30;;;;;;;12.65;9.18;;;14.00;99.90;;;;;;6246431;23;20383;-84
2023/06/18 01:43:19;;;;;;;14.30;9.90;;;14.00;99.90;;;;;;6194630;23;20027;-84
2023/06/18 01:46:01;;;;;;;13.07;9.68;;;14.00;99.90;;;;;;6245714;23;20020;-84
2023/06/18 01:48:31;;;;;;;14.25;10.77;;;14.00;99.90;;;;;;6246285;23;20020;-83
2023/06/18 01:50:58;;;;;;;13.75;9.70;;;14.00;99.90;;;;;;6246070;23;20016;-84
2023/06/18 01:53:25;;;;;;;15.73;10.43;;;14.00;99.90;;;;;;6246696;23;20351;-83
2023/06/18 01:55:56;;;;;;;15.15;10.68;;;14.00;99.90;;;;;;6246793;23;20031;-83
2023/06/18 01:58:22;;;;;;;15.13;10.43;;;13.90;99.90;;;;;;6246449;23;20070;-84
2023/06/18 02:00:51;;;;;;;14.45;11.00;;;13.90;99.90;;;;;;6219355;23;20023;-84
2023/06/18 02:03:18;;;;;;;14.45;10.55;;;13.90;99.90;;;;;;6245672;23;20060;-84
2023/06/18 02:05:44;;;;;;;14.85;10.65;;;14.00;99.90;;;;;;6219106;23;20028;-84
2023/06/18 02:08:11;;;;;;;14.20;10.00;;;13.90;99.90;;;;;;6246463;23;20085;-84
2023/06/18 02:10:37;;;;;;;13.93;10.25;;;13.90;99.90;;;;;;6246116;23;20017;-84
2023/06/18 02:13:03;;;;;;;14.43;10.38;;;13.90;99.90;;;;;;6219278;23;20493;-84
2023/06/18 02:15:28;;;;;;;12.82;10.00;;;13.90;99.90;;;;;;6246618;23;20012;-84
2023/06/18 02:17:54;;;;;;;14.38;10.57;;;13.90;99.90;;;;;;6219099;23;20046;-84
2023/06/18 02:20:20;;;;;;;14.52;10.65;;;14.00;99.90;;;;;;6219714;23;20024;-84
2023/06/18 02:22:46;;;;;;;12.25;9.48;;;14.00;99.90;;;;;;6219163;23;20012;-84
2023/06/18 02:25:12;;;;;;;12.32;9.38;;;13.90;99.90;;;;;;6219327;23;20024;-84
2023/06/18 02:27:38;;;;;;;14.85;11.02;;;14.00;99.90;;;;;;6246369;23;20023;-84
2023/06/18 02:30:04;;;;;;;12.40;9.73;;;14.00;99.90;;;;;;6246004;23;20095;-85
2023/06/18 02:32:31;;;;;;;13.35;10.27;;;14.00;99.90;;;;;;6246075;23;20334;-84
2023/06/18 02:34:58;;;;;;;12.40;8.82;;;13.90;99.90;;;;;;6219212;23;20342;-83
2023/06/18 02:37:23;;;;;;;15.25;11.50;;;14.00;99.90;;;;;;6246506;23;20024;-83
2023/06/18 02:39:49;;;;;;;13.35;10.05;;;13.90;99.90;;;;;;6245924;23;20115;-84
2023/06/18 02:42:20;;;;;;;12.27;9.40;;;14.00;99.90;;;;;;6245950;23;20344;-83
2023/06/18 02:44:46;;;;;;;14.38;10.63;;;13.90;99.90;;;;;;6245848;23;20020;-84
2023/06/18 02:47:12;;;;;;;14.25;10.48;;;14.00;99.90;;;;;;6219092;23;20031;-85
2023/06/18 02:49:38;;;;;;;10.70;8.35;;;14.00;99.90;;;;;;6219511;23;20087;-85
2023/06/18 02:52:04;;;;;;;12.20;8.95;;;14.00;99.90;;;;;;6219328;23;20016;-84
2023/06/18 02:54:30;;;;;;;13.95;10.88;;;14.00;99.90;;;;;;6219166;23;20012;-84
2023/06/18 02:56:55;;;;;;;12.80;10.00;;;14.00;99.90;;;;;;6218702;23;20028;-84
2023/06/18 02:59:21;;;;;;;13.88;10.70;;;14.00;99.90;;;;;;6245901;23;20096;-84
2023/06/18 03:01:48;;;;;;;16.65;11.70;;;14.00;99.90;;;;;;6245790;23;20050;-85
2023/06/18 03:04:14;;;;;;;19.88;13.73;;;14.00;99.90;;;;;;6218578;23;20542;-85
2023/06/18 03:06:40;;;;;;;17.05;12.02;;;13.70;99.90;;;;;;6245563;23;20016;-83
2023/06/18 03:09:06;;;;;;;16.35;12.07;;;14.00;99.90;;;;;;6245947;23;20022;-86
2023/06/18 03:11:32;;;;;;;17.00;12.32;;;14.10;99.90;;;;;;6218933;23;20502;-84
2023/06/18 03:13:57;;;;;;;15.90;11.10;;;14.10;99.90;;;;;;6218061;23;20078;-84
2023/06/18 03:16:26;;;;;;;16.48;11.65;;;14.10;99.90;;;;;;6219136;23;20072;-84
2023/06/18 03:18:52;;;;;;;15.50;10.93;;;14.10;99.90;;;;;;6219166;23;20023;-84
2023/06/18 03:21:18;;;;;;;14.95;9.75;;;14.20;99.90;;;;;;6218572;23;20028;-85
2023/06/18 03:23:43;;;;;;;13.98;9.30;;;14.20;99.90;;;;;;6218689;23;20023;-86
2023/06/18 03:26:10;;;;;;;16.98;10.65;;;14.30;99.90;;;;;;6245973;23;20030;-84
2023/06/18 03:28:36;;;;;;;15.90;10.13;;;14.30;99.90;;;;;;6245445;23;20012;-83
2023/06/18 03:31:02;;;;;;;12.30;8.85;;;14.30;99.90;;;;;;6245821;23;20034;-83
2023/06/18 03:33:31;;;;;;;16.42;10.35;;;14.30;99.90;;;;;;6248228;23;20225;-84
2023/06/18 03:36:00;;;;;;;16.38;10.88;;;14.30;99.90;;;;;;6247031;23;20058;-85
2023/06/18 03:38:27;;;;;;;13.95;9.88;;;14.30;99.90;;;;;;6246829;23;20020;-84
2023/06/18 03:40:53;;;;;;;14.45;10.00;;;14.30;99.90;;;;;;6246847;23;20022;-85
2023/06/18 03:43:19;;;;;;;15.10;10.27;;;14.30;99.90;;;;;;6218400;23;20016;-85
2023/06/18 03:45:45;;;;;;;11.70;8.35;;;14.30;99.90;;;;;;6245738;23;20020;-84
2023/06/18 03:48:10;;;;;;;13.63;9.85;;;14.30;99.90;;;;;;6245821;23;20021;-86
2023/06/18 03:50:36;;;;;;;13.90;9.02;;;14.30;99.90;;;;;;6245363;23;20534;-84
2023/06/18 03:53:02;;;;;;;11.30;7.63;;;14.30;99.90;;;;;;6218828;23;20483;-86
2023/06/18 03:55:28;;;;;;;10.15;7.45;;;14.30;99.90;;;;;;6218568;23;20016;-85
2023/06/18 03:57:53;;;;;;;10.35;6.93;;;14.30;99.90;;;;;;6218340;23;20499;-85
2023/06/18 04:00:19;;;;;;;10.18;7.22;;;14.40;99.90;;;;;;6218307;23;20023;-85
2023/06/18 04:02:45;;;;;;;10.02;6.78;;;14.40;99.90;;;;;;6218269;23;20027;-85
2023/06/18 04:05:12;;;;;;;9.13;6.47;;;14.70;99.90;;;;;;6245429;23;20054;-85
2023/06/18 04:07:38;;;;;;;8.90;6.40;;;14.50;99.90;;;;;;6218454;23;20346;-85
2023/06/18 04:10:04;;;;;;;10.02;6.65;;;14.70;99.90;;;;;;6245073;23;20026;-85
2023/06/18 04:12:29;;;;;;;10.77;7.20;;;14.60;99.90;;;;;;6218924;23;20024;-85
2023/06/18 04:14:55;;;;;;;10.43;7.40;;;14.70;99.90;;;;;;6245318;23;20024;-85
2023/06/18 04:17:21;;;;;;;9.68;7.32;;;14.70;99.90;;;;;;6245129;23;20092;-85
2023/06/18 04:19:46;;;;;;;10.80;7.57;;;14.70;99.90;;;;;;6217998;23;20020;-84
2023/06/18 04:22:12;;;;;;;11.93;8.25;;;14.80;99.90;;;;;;6245153;23;20020;-84
2023/06/18 04:24:38;;;;;;;13.05;8.57;;;14.80;99.90;;;;;;6218404;23;20027;-84
2023/06/18 04:27:04;;;;;;;12.60;8.52;;;14.80;99.90;;;;;;6246284;23;20017;-85
2023/06/18 04:29:30;;;;;;;13.40;8.50;;;14.90;99.90;;;;;;6247399;23;20451;-84
2023/06/18 04:31:56;;;;;;;14.82;10.00;;;14.80;99.90;;;;;;6247288;23;20096;-85
2023/06/18 04:34:22;;;;;;;16.45;9.73;;;15.00;99.90;;;;;;6195308;23;20028;-86
2023/06/18 04:36:47;;;;;;;14.63;9.68;;;15.00;99.90;;;;;;6246835;23;20020;-85
2023/06/18 04:39:13;;;;;;;14.02;9.68;;;15.10;99.90;;;;;;6219688;23;20031;-86
2023/06/18 04:41:39;;;;;;;15.35;10.02;;;15.20;99.90;;;;;;6247556;23;20022;-85
2023/06/18 04:44:04;;;;;;;14.93;10.82;;;15.30;99.90;;;;;;6220260;23;20020;-86
2023/06/18 04:46:31;;;;;;;17.85;12.25;;;15.30;99.90;;;;;;6247409;23;20017;-85
2023/06/18 04:48:59;;;;;;;16.75;9.80;;;15.40;99.90;;;;;;6219865;23;20024;-85
2023/06/18 04:51:25;;;;;;;18.60;12.10;;;15.50;99.90;;;;;;6219225;23;20059;-86
2023/06/18 04:53:52;;;;;;;16.30;11.50;;;15.50;99.90;;;;;;6247364;23;20054;-85
2023/06/18 04:56:18;;;;;;;15.35;10.05;;;15.50;99.90;;;;;;6247093;23;20058;-85
2023/06/18 04:58:44;;;;;;;17.55;11.45;;;15.60;99.90;;;;;;6246502;23;20031;-85
2023/06/18 05:01:09;;;;;;;14.45;10.10;;;15.60;99.90;;;;;;6246560;23;20016;-86
2023/06/18 05:03:36;;;;;;;12.60;8.77;;;15.60;99.90;;;;;;6247216;23;20051;-87
2023/06/18 05:06:02;;;;;;;11.27;8.38;;;15.60;99.90;;;;;;6246816;23;20074;-85
2023/06/18 05:08:28;;;;;;;13.10;9.30;;;15.70;99.90;;;;;;6247202;23;20083;-84
2023/06/18 05:10:54;;;;;;;11.73;8.48;;;15.70;99.90;;;;;;6219881;23;20358;-85
2023/06/18 05:13:20;;;;;;;9.23;6.88;;;15.70;99.90;;;;;;6246920;23;20027;-86
2023/06/18 05:15:46;;;;;;;11.40;7.90;;;15.70;99.90;;;;;;6247044;23;20024;-86
2023/06/18 05:18:11;;;;;;;9.68;6.88;;;15.80;99.90;;;;;;6247181;23;20013;-86
2023/06/18 05:20:37;;;;;;;8.57;6.22;;;15.80;99.90;;;;;;6219038;23;20345;-85
2023/06/18 05:23:03;;;;;;;10.32;7.85;;;15.90;99.90;;;;;;6194558;23;20096;-86
2023/06/18 05:25:28;;;;;;;10.60;7.53;;;15.90;99.90;;;;;;6219765;23;20008;-86
2023/06/18 05:27:54;;;;;;;11.02;8.10;;;16.00;99.90;;;;;;6246919;23;20085;-85
2023/06/18 05:30:20;;;;;;;10.13;7.68;;;16.00;99.90;;;;;;6219760;23;20035;-84
2023/06/18 05:32:45;;;;;;;12.32;8.70;;;16.10;99.90;;;;;;6246938;23;20442;-86
2023/06/18 05:35:11;;;;;;;10.63;7.63;;;16.10;99.90;;;;;;6246497;23;20043;-86
2023/06/18 05:37:37;;;;;;;10.93;8.32;;;16.10;99.90;;;;;;6219395;23;20017;-86
2023/06/18 05:40:03;;;;;;;11.10;8.02;;;16.10;99.90;;;;;;6200667;23;20086;-86
2023/06/18 05:42:28;;;;;;;11.63;8.38;;;16.20;99.90;;;;;;6216044;23;20048;-86
2023/06/18 05:44:54;;;;;;;8.15;7.10;;;16.20;99.90;;;;;;6164650;23;20044;-85
2023/06/18 05:47:20;;;;;;;8.55;6.57;;;16.30;99.90;;;;;;6165088;23;20020;-84
2023/06/18 05:49:46;;;;;;;8.70;6.80;;;16.40;99.90;;;;;;6190036;23;20445;-85
2023/06/18 05:52:11;;;;;;;8.93;6.70;;;16.50;99.90;;;;;;6189385;23;20083;-85
2023/06/18 05:54:38;;;;;;;7.95;6.32;;;16.60;99.90;;;;;;6215926;23;20395;-85
2023/06/18 05:57:05;;;;;;;8.95;6.95;;;16.60;99.90;;;;;;6189227;23;20052;-86
2023/06/18 05:59:30;;;;;;;9.68;7.47;;;16.70;99.90;;;;;;6189289;23;20333;-87
2023/06/18 06:01:56;;;;;;;14.70;10.40;;;16.70;99.90;;;;;;6215951;23;20028;-86
2023/06/18 06:04:23;;;;;;;10.10;8.23;;;16.70;99.90;;;;;;6189360;23;20043;-85
2023/06/18 06:06:48;;;;;;;12.70;8.95;;;16.70;99.90;;;;;;6215372;23;20039;-86
2023/06/18 06:09:14;;;;;;;12.25;8.45;;;16.80;99.90;;;;;;6216128;23;20020;-85
2023/06/18 06:11:40;;;;;;;11.57;8.75;;;16.90;99.90;;;;;;6216092;23;20021;-86
2023/06/18 06:14:06;;;;;;;13.43;9.45;;;16.90;99.90;;;;;;6216045;23;20095;-86
2023/06/18 06:16:31;;;;;;;9.90;7.90;;;17.00;99.90;;;;;;6215572;23;20016;-86
2023/06/18 06:18:57;;;;;;;11.82;8.48;;;17.00;99.90;;;;;;6216192;23;20017;-86
2023/06/18 06:21:23;;;;;;;14.45;10.02;;;17.10;99.90;;;;;;6215592;23;20025;-86
2023/06/18 06:23:49;;;;;;;13.98;9.90;;;17.20;99.90;;;;;;6215862;23;20393;-85
2023/06/18 06:26:14;;;;;;;14.07;9.57;;;17.20;99.90;;;;;;6189195;23;20025;-86
2023/06/18 06:28:40;;;;;;;11.88;9.63;;;17.30;99.90;;;;;;6215841;23;20080;-85
2023/06/18 06:31:06;;;;;;;11.55;9.00;;;17.40;99.90;;;;;;6188714;23;20096;-85
2023/06/18 06:33:32;;;;;;;11.85;9.02;;;17.40;99.90;;;;;;6188750;23;20174;-85
2023/06/18 06:35:58;;;;;;;9.88;7.82;;;17.50;99.90;;;;;;6214696;23;20386;-83
2023/06/18 06:38:23;;;;;;;11.10;9.05;;;17.70;99.90;;;;;;6215070;23;20027;-87
2023/06/18 06:40:49;;;;;;;13.63;9.63;;;17.70;99.90;;;;;;6244152;23;20020;-87
2023/06/18 06:43:15;;;;;;;12.98;9.52;;;17.80;99.90;;;;;;6219641;23;20020;-90
2023/06/18 06:45:41;;;;;;;12.15;9.05;;;17.90;99.90;;;;;;6245953;23;20016;-85
2023/06/18 06:48:07;;;;;;;14.15;11.00;;;18.00;99.90;;;;;;6246138;23;20031;-86
2023/06/18 06:50:32;;;;;;;11.55;9.20;;;18.10;99.90;;;;;;6218438;23;20024;-84
2023/06/18 06:52:58;;;;;;;11.07;8.68;;;18.20;99.90;;;;;;6218855;23;20062;-86
2023/06/18 06:55:24;;;;;;;12.82;10.18;;;18.30;99.90;;;;;;6219107;23;20062;-86
2023/06/18 06:57:49;;;;;;;9.05;7.78;;;18.40;99.90;;;;;;6218690;23;20019;-85
2023/06/18 07:00:16;;;;;;;12.52;8.20;;;18.50;99.90;;;;;;6218636;23;20016;-85
2023/06/18 07:02:41;;;;;;;10.43;7.68;;;18.60;99.90;;;;;;6245730;23;20028;-84
2023/06/18 07:05:08;;;;;;;9.70;7.47;;;18.60;99.90;;;;;;6218642;22;20402;-85
2023/06/18 07:07:35;;;;;;;11.75;8.45;;;18.80;99.90;;;;;;6245626;23;20020;-85
2023/06/18 07:10:01;;;;;;;11.15;8.40;;;18.90;99.90;;;;;;6245319;23;20347;-84
2023/06/18 07:12:27;;;;;;;9.38;6.45;;;19.10;99.90;;;;;;6245191;23;20450;-84
2023/06/18 07:14:53;;;;;;;9.00;6.82;;;19.30;99.90;;;;;;6245411;23;20023;-83
2023/06/18 07:17:18;;;;;;;10.45;6.78;;;19.40;99.90;;;;;;6218656;23;20039;-82
2023/06/18 07:19:44;;;;;;;10.73;8.45;;;19.60;99.90;;;;;;6245647;23;20084;-83
2023/06/18 07:22:10;;;;;;;10.32;8.43;;;19.60;99.90;;;;;;6245997;23;20020;-82
2023/06/18 07:24:35;;;;;;;10.07;7.80;;;19.70;99.90;;;;;;6218958;23;20104;-83
2023/06/18 07:27:01;;;;;;;9.77;7.85;;;19.80;99.90;;;;;;6245729;23;20020;-82
2023/06/18 07:29:27;;;;;;;10.48;7.00;;;20.00;99.90;;;;;;6218407;23;20024;-82
2023/06/18 07:31:52;;;;;;;9.30;8.18;;;20.10;99.90;;;;;;6218391;23;20024;-83
2023/06/18 07:34:18;;;;;;;9.02;7.15;;;20.20;99.90;;;;;;6245513;23;20451;-83
2023/06/18 07:36:44;;;;;;;10.40;7.88;;;20.40;99.90;;;;;;6245514;23;20012;-84
2023/06/18 07:39:09;;;;;;;8.38;5.53;;;20.50;99.90;;;;;;6245321;23;20020;-85
2023/06/18 07:41:35;;;;;;;11.32;8.63;;;20.60;99.90;;;;;;6245895;23;20063;-83
2023/06/18 07:44:01;;;;;;;10.07;7.18;;;20.70;99.90;;;;;;6245585;23;20051;-84
2023/06/18 07:46:27;;;;;;;7.03;5.90;;;20.80;99.90;;;;;;6245471;23;20016;-84
2023/06/18 07:48:52;;;;;;;9.40;7.22;;;21.10;99.90;;;;;;6218771;23;20138;-85
2023/06/18 07:51:18;;;;;;;9.25;6.47;;;21.20;99.90;;;;;;6245797;23;20435;-84
2023/06/18 07:53:44;;;;;;;6.57;5.78;;;21.40;99.90;;;;;;6218865;23;20439;-84
2023/06/18 07:56:10;;;;;;;8.73;6.00;;;21.60;99.90;;;;;;6245706;23;20020;-84
2023/06/18 07:58:35;;;;;;;6.53;5.30;;;21.80;99.90;;;;;;6218256;23;20020;-85
2023/06/18 08:01:01;;;;;;;8.27;6.28;;;22.00;99.90;;;;;;6217956;23;20395;-85
2023/06/18 08:03:27;;;;;;;8.82;6.03;;;22.20;99.90;;;;;;6245035;23;20020;-84
2023/06/18 08:05:52;;;;;;;7.72;5.45;;;22.40;99.90;;;;;;6245574;22;20035;-85
2023/06/18 08:08:18;;;;;;;10.65;8.27;;;22.50;99.90;;;;;;6245416;23;20023;-84
2023/06/18 08:10:43;;;;;;;8.00;6.85;;;22.40;99.90;;;;;;6245337;23;20024;-83
2023/06/18 08:13:09;;;;;;;7.93;6.28;;;22.30;99.90;;;;;;6218661;23;20086;-85
2023/06/18 08:15:35;;;;;;;10.07;5.53;;;22.50;99.90;;;;;;6245074;23;20020;-84
2023/06/18 08:18:00;;;;;;;9.93;7.30;;;22.60;99.90;;;;;;6218086;23;20091;-83
2023/06/18 08:20:26;;;;;;;9.80;7.45;;;22.70;99.90;;;;;;6245615;23;20027;-83
2023/06/18 08:22:52;;;;;;;7.32;4.85;;;22.60;99.90;;;;;;6218179;23;20024;-83
2023/06/18 08:25:18;;;;;;;7.78;6.43;;;22.90;99.90;;;;;;6245460;23;20008;-84
2023/06/18 08:27:43;;;;;;;8.25;6.40;;;23.00;99.90;;;;;;6245381;23;20477;-83
2023/06/18 08:30:09;;;;;;;8.18;6.43;;;23.20;99.90;;;;;;6218022;23;20402;-84
2023/06/18 08:32:37;;;;;;;7.40;5.85;;;23.20;99.90;;;;;;6245462;23;20091;-84
2023/06/18 08:35:04;;;;;;;8.35;5.05;;;23.30;99.90;;;;;;6217619;22;20467;-83
2023/06/18 08:37:30;;;;;;;6.20;4.80;;;23.40;99.90;;;;;;6218254;23;20027;-85
2023/06/18 08:39:55;;;;;;;7.80;4.32;;;23.70;99.90;;;;;;6218271;23;20028;-84
2023/06/18 08:42:22;;;;;;;6.22;4.43;;;23.80;99.90;;;;;;6244854;23;20024;-84
2023/06/18 08:44:50;;;;;;;5.30;3.22;;;24.00;99.90;;;;;;6245226;23;20027;-85
2023/06/18 08:47:16;;;;;;;8.63;4.28;;;24.30;99.90;;;;;;6217876;23;20012;-84
2023/06/18 08:49:44;;;;;;;5.97;4.30;;;24.50;99.90;;;;;;6245296;23;20051;-84
2023/06/18 08:52:10;;;;;;;6.18;4.20;;;24.60;99.90;;;;;;6218229;23;20046;-84
2023/06/18 08:54:37;;;;;;;5.72;3.90;;;24.70;99.90;;;;;;6217957;23;20052;-84
2023/06/18 08:57:12;;;;;;;5.25;4.00;;;25.00;99.90;;;;;;6245127;23;20028;-85
2023/06/18 08:59:38;;;;;;;5.65;4.07;;;25.00;99.90;;;;;;6245274;23;20059;-85
2023/06/18 09:02:05;;;;;;;7.68;6.05;;;25.30;99.90;;;;;;6244918;23;20450;-85
2023/06/18 09:04:33;;;;;;;5.22;3.72;;;25.30;99.90;;;;;;6245244;23;20107;-85
2023/06/18 09:07:00;;;;;;;6.93;4.72;;;25.60;99.90;;;;;;6218021;23;20066;-86
2023/06/18 09:09:27;;;;;;;7.65;4.10;;;25.80;99.90;;;;;;6244719;23;20065;-87
2023/06/18 09:11:53;;;;;;;5.05;3.97;;;25.70;99.90;;;;;;6245035;23;20031;-85
2023/06/18 09:14:18;;;;;;;4.85;3.67;;;25.90;99.90;;;;;;6219688;23;20048;-85
2023/06/18 09:16:44;;;;;;;8.15;4.32;;;26.10;99.90;;;;;;6247062;23;20023;-84
2023/06/18 09:19:10;;;;;;;6.95;4.18;;;26.30;99.90;;;;;;6246811;23;20016;-84
2023/06/18 09:21:40;;;;;;;4.97;3.83;;;26.50;99.90;;;;;;6194873;23;20055;-85
2023/06/18 09:24:17;;;;;;;3.92;3.22;;;26.60;99.90;;;;;;6246566;23;20087;-85
2023/06/18 09:26:43;;;;;;;7.57;4.35;;;26.50;99.90;;;;;;6219743;23;20028;-84
2023/06/18 09:29:10;;;;;;;5.40;4.13;;;26.30;99.90;;;;;;6219509;23;20056;-85
2023/06/18 09:31:38;;;;;;;5.43;3.63;;;26.40;99.90;;;;;;6246790;23;20062;-85
2023/06/18 09:34:16;;;;;;;5.10;3.80;;;26.50;99.90;;;;;;6246591;23;20024;-84
2023/06/18 09:36:43;;;;;;;5.40;4.00;;;26.70;99.90;;;;;;6246496;23;20024;-85
2023/06/18 09:39:20;;;;;;;4.20;3.70;;;26.80;99.90;;;;;;6219349;23;20016;-85
2023/06/18 09:41:47;;;;;;;5.03;3.45;;;27.10;99.90;;;;;;6246823;23;20095;-83
2023/06/18 09:44:14;;;;;;;6.10;3.95;;;27.30;99.90;;;;;;6246283;23;20434;-82
2023/06/18 09:46:48;;;;;;;4.75;3.70;;;27.30;99.90;;;;;;6246847;23;20343;-83
2023/06/18 09:49:17;;;;;;;4.72;3.45;;;27.30;99.90;;;;;;6246725;23;20044;-83
2023/06/18 09:51:44;;;;;;;4.05;3.38;;;27.40;99.90;;;;;;6246414;23;20344;-83
2023/06/18 09:54:10;;;;;;;4.00;3.03;;;27.50;99.90;;;;;;6246792;23;20091;-82
2023/06/18 09:56:38;;;;;;;3.85;2.95;;;27.60;99.90;;;;;;6246514;23;20020;-83
2023/06/18 09:59:04;;;;;;;5.68;3.38;;;27.70;99.80;;;;;;6246314;23;20438;-83
2023/06/18 10:01:50;;;;;;;4.93;3.33;;;27.80;99.90;;;;;;6219357;23;20024;-83
2023/06/18 10:04:19;;;;;;;3.92;2.92;;;27.90;99.60;;;;;;6218691;23;20016;-82
2023/06/18 10:06:51;;;;;;;4.82;3.15;;;27.90;99.00;;;;;;6246085;23;20462;-81
2023/06/18 10:09:19;;;;;;;5.05;3.90;;;27.80;98.70;;;;;;6219319;23;20020;-82
2023/06/18 10:11:48;;;;;;;5.03;2.85;;;27.60;97.90;;;;;;6246377;23;20082;-83
2023/06/18 10:14:16;;;;;;;4.57;2.80;;;27.60;98.30;;;;;;6246357;23;20155;-83
2023/06/18 10:16:47;;;;;;;4.28;3.03;;;27.80;98.70;;;;;;6246746;23;20020;-84
2023/06/18 10:19:25;;;;;;;4.30;3.17;;;28.10;98.80;;;;;;6246679;23;20342;-83
2023/06/18 10:22:04;;;;;;;5.18;3.42;;;28.10;97.50;;;;;;6246015;23;20016;-85
2023/06/18 10:24:41;;;;;;;4.05;2.47;;;28.40;98.10;;;;;;6218440;23;20016;-85
2023/06/18 10:27:07;;;;;;;7.03;3.50;;;28.70;98.70;;;;;;6245930;23;20478;-83
2023/06/18 10:29:33;;;;;;;4.05;2.95;;;28.70;97.20;;;;;;6218946;23;20024;-84
2023/06/18 10:32:02;;;;;;;3.80;3.10;;;28.70;97.10;;;;;;6219116;23;20135;-84
2023/06/18 10:34:27;;;;;;;3.38;2.88;;;28.70;96.40;;;;;;6246208;23;20027;-85
2023/06/18 10:36:56;;;;;;;4.32;2.55;;;28.80;96.60;;;;;;6218780;23;20023;-84
2023/06/18 10:39:22;;;;;;;3.40;2.80;;;29.00;97.10;;;;;;6245891;23;20081;-84
2023/06/18 10:41:49;;;;;;;3.65;2.90;;;29.00;96.30;;;;;;6219140;23;20439;-84
2023/06/18 10:44:15;;;;;;;3.38;2.92;;;29.10;95.10;;;;;;6246112;23;20012;-84
2023/06/18 10:46:41;;;;;;;3.72;2.90;;;29.30;94.80;;;;;;6246322;23;20027;-85
2023/06/18 10:49:19;;;;;;;3.40;2.67;;;29.30;95.20;;;;;;6219026;23;20016;-84
2023/06/18 10:52:12;;;;;;;4.15;2.88;;;29.30;93.80;;;;;;6218703;23;20024;-84
2023/06/18 10:54:38;;;;;;;4.60;3.00;;;29.60;93.90;;;;;;6219160;23;20016;-84
2023/06/18 10:57:04;;;;;;;3.38;2.92;;;29.60;95.90;;;;;;6219013;23;20405;-84
2023/06/18 10:59:34;;;;;;;5.35;3.50;;;29.80;94.40;;;;;;6246172;23;20427;-84
2023/06/18 11:02:00;;;;;;;5.22;3.22;;;29.70;92.00;;;;;;6218690;23;20099;-84
2023/06/18 11:04:31;;;;;;;4.82;2.92;;;29.70;92.20;;;;;;6245258;23;20039;-83
2023/06/18 11:07:12;;;;;;;4.40;2.75;;;29.70;92.80;;;;;;6218391;23;20023;-85
2023/06/18 11:09:52;;;;;;;4.07;2.92;;;30.00;93.80;;;;;;6218421;23;20020;-86
2023/06/18 11:12:23;;;;;;;3.92;2.88;;;29.90;92.60;;;;;;6245498;23;20027;-85
2023/06/18 11:15:10;;;;;;;4.13;3.50;;;30.00;92.50;;;;;;6244175;23;20342;-85
2023/06/18 11:17:38;;;;;;;4.68;3.10;;;29.70;93.10;;;;;;6245609;23;20031;-85
2023/06/18 11:20:05;;;;;;;5.68;3.10;;;30.00;93.00;;;;;;6218688;23;20020;-84
2023/06/18 11:22:31;;;;;;;4.22;3.33;;;30.00;92.00;;;;;;6245066;23;20103;-84
2023/06/18 11:25:01;;;;;;;3.40;2.85;;;29.90;92.00;;;;;;6218298;23;20062;-84
2023/06/18 11:27:27;;;;;;;8.40;4.97;;;29.90;91.90;;;;;;6217831;23;20324;-85
2023/06/18 11:29:57;;;;;;;4.70;2.72;;;29.70;91.80;;;;;;6192953;23;20020;-82
2023/06/18 11:32:24;;;;;;;3.70;2.92;;;29.70;92.30;;;;;;6218047;23;20028;-85
2023/06/18 11:34:50;;;;;;;3.35;2.78;;;29.90;92.10;;;;;;6245279;23;20016;-86
2023/06/18 11:37:16;;;;;;;5.32;3.55;;;29.80;91.90;;;;;;6217671;23;20059;-86
2023/06/18 11:39:42;;;;;;;4.22;2.83;;;29.60;91.30;;;;;;6244758;23;20032;-87
2023/06/18 11:42:21;;;;;;;5.05;3.17;;;29.70;92.60;;;;;;6218668;23;20095;-85
2023/06/18 11:44:51;;;;;;;128.77;114.55;;;29.70;91.80;;;;;;6218247;23;20070;-87
2023/06/18 11:47:17;;;;;;;3.58;2.97;;;29.70;91.90;;;;;;6243895;23;20020;-86
2023/06/18 11:49:47;;;;;;;4.60;3.22;;;29.90;90.70;;;;;;6245332;23;20028;-86
2023/06/18 11:52:16;;;;;;;4.68;3.20;;;29.80;90.40;;;;;;6217793;23;20099;-85
2023/06/18 11:54:43;;;;;;;5.32;3.60;;;29.80;90.50;;;;;;6245304;23;20462;-85
2023/06/18 11:57:13;;;;;;;4.35;3.28;;;29.90;90.70;;;;;;6218275;23;20024;-84
2023/06/18 11:59:40;;;;;;;4.15;3.28;;;30.10;91.80;;;;;;6245023;23;20016;-86
2023/06/18 12:02:12;;;;;;;4.28;3.20;;;30.30;91.30;;;;;;6218259;23;20026;-85
2023/06/18 12:04:39;;;;;;;3.47;2.67;;;30.20;88.80;;;;;;6245703;23;20020;-85
2023/06/18 12:07:05;;;;;;;4.63;3.25;;;30.00;90.60;;;;;;6244779;23;20088;-83
2023/06/18 12:09:36;;;;;;;6.10;3.47;;;30.00;90.00;;;;;;6245490;23;20088;-85
2023/06/18 12:12:11;;;;;;;3.45;2.95;;;30.00;90.80;;;;;;6245341;23;20020;-86
2023/06/18 12:14:46;;;;;;;3.80;2.88;;;30.10;90.50;;;;;;6245227;23;20377;-84
2023/06/18 12:17:24;;;;;;;3.22;2.72;;;30.00;87.70;;;;;;6245592;23;20350;-84
2023/06/18 12:19:58;;;;;;;3.63;2.72;;;30.00;90.00;;;;;;6245362;23;20355;-86
2023/06/18 12:22:24;;;;;;;4.85;3.03;;;30.10;89.60;;;;;;6245339;23;20020;-83
2023/06/18 12:24:50;;;;;;;3.08;2.42;;;30.10;90.30;;;;;;6244916;23;20020;-83
2023/06/18 12:27:16;;;;;;;3.92;2.97;;;30.30;90.30;;;;;;6245029;23;20390;-83
2023/06/18 12:29:45;;;;;;;3.22;2.50;;;30.30;88.90;;;;;;6244947;23;20024;-83
2023/06/18 12:32:12;;;;;;;3.63;2.75;;;30.30;84.90;;;;;;6244989;23;20419;-83
2023/06/18 12:34:39;;;;;;;4.25;3.10;;;30.40;89.10;;;;;;6244755;23;20092;-82
2023/06/18 12:37:06;;;;;;;4.10;3.35;;;30.60;86.70;;;;;;6244935;23;20016;-82
2023/06/18 12:39:32;;;;;;;3.53;2.88;;;30.50;85.30;;;;;;6218303;23;20079;-82